createdAt,value
2022-10-07T04:17:04.738Z,2.54
2022-10-07T04:19:31.484Z,2.52
2022-10-07T04:22:02.912Z,2.58
2022-10-07T04:24:32.591Z,2.60
2022-10-07T04:26:59.719Z,2.56
2022-10-07T04:29:27.506Z,2.54
2022-10-07T04:31:55.367Z,2.63
2022-10-07T04:34:22.605Z,2.51
2022-10-07T04:36:49.399Z,2.52
2022-10-07T04:39:17.122Z,2.55
2022-10-07T04:41:54.614Z,2.55
2022-10-07T04:44:25.109Z,2.57
2022-10-07T04:47:09.672Z,2.55
2022-10-07T04:49:38.223Z,2.68
2022-10-07T04:52:07.478Z,2.66
2022-10-07T04:54:39.300Z,2.65
2022-10-07T04:57:06.022Z,2.72
2022-10-07T04:59:34.390Z,2.72
2022-10-07T05:02:02.007Z,2.66
2022-10-07T05:04:34.563Z,2.64
2022-10-07T05:07:02.340Z,2.61
2022-10-07T05:09:30.540Z,2.65
2022-10-07T05:11:57.348Z,2.59
2022-10-07T05:14:23.971Z,2.62
2022-10-07T05:16:54.679Z,2.68
2022-10-07T05:19:24.559Z,2.69
2022-10-07T05:21:51.345Z,2.69
2022-10-07T05:24:27.875Z,2.71
2022-10-07T05:26:59.607Z,2.71
2022-10-07T05:29:27.158Z,2.73
2022-10-07T05:31:55.714Z,2.73
2022-10-07T05:34:25.523Z,2.73
2022-10-07T05:36:59.105Z,2.71
2022-10-07T05:39:26.351Z,2.60
2022-10-07T05:41:58.623Z,2.61
2022-10-07T05:44:33.123Z,2.61
2022-10-07T05:47:02.327Z,2.57
2022-10-07T05:49:30.552Z,2.51
2022-10-07T05:51:59.546Z,2.51
2022-10-07T05:54:26.179Z,2.54
2022-10-07T05:56:54.418Z,2.57
2022-10-07T05:59:21.284Z,2.63
2022-10-07T06:01:49.015Z,2.59
2022-10-07T06:04:20.103Z,2.71
2022-10-07T06:06:48.456Z,2.73
2022-10-07T06:09:33.668Z,2.70
2022-10-07T06:12:23.613Z,2.78
2022-10-07T06:14:52.286Z,2.80
2022-10-07T06:17:18.732Z,2.81
2022-10-07T06:19:47.745Z,2.78
2022-10-07T06:22:18.287Z,2.87
2022-10-07T06:24:45.309Z,2.91
2022-10-07T06:27:14.390Z,2.98
2022-10-07T06:29:42.331Z,3.04
2022-10-07T06:32:08.807Z,3.05
2022-10-07T06:34:36.322Z,3.03
2022-10-07T06:37:02.793Z,3.04
2022-10-07T06:39:29.946Z,3.07
2022-10-07T06:41:57.116Z,3.04
2022-10-07T06:44:49.742Z,3.12
2022-10-07T06:47:18.199Z,3.07
2022-10-07T06:49:46.279Z,3.16
2022-10-07T06:52:12.915Z,3.18
2022-10-07T06:54:41.032Z,3.18
2022-10-07T06:57:33.219Z,3.14
2022-10-07T06:59:56.118Z,3.08
2022-10-07T07:02:25.594Z,3.11
2022-10-07T07:04:58.108Z,3.16
2022-10-07T07:07:26.063Z,3.25
2022-10-07T07:09:52.922Z,3.30
2022-10-07T07:12:22.660Z,3.42
2022-10-07T07:14:50.660Z,3.56
2022-10-07T07:17:20.007Z,3.53
2022-10-07T07:19:46.787Z,3.67
2022-10-07T07:22:13.548Z,3.74
2022-10-07T07:24:42.130Z,3.76
2022-10-07T07:27:08.830Z,3.87
2022-10-07T07:29:36.594Z,3.90
2022-10-07T07:32:04.431Z,3.97
2022-10-07T07:34:36.990Z,3.97
2022-10-07T07:37:04.379Z,3.97
2022-10-07T07:39:37.063Z,4.09
2022-10-07T07:42:08.703Z,4.22
2022-10-07T07:44:37.674Z,4.26
2022-10-07T07:47:08.654Z,4.42
2022-10-07T07:49:35.977Z,4.45
2022-10-07T07:52:04.177Z,4.53
2022-10-07T07:54:37.546Z,4.57
2022-10-07T07:57:04.510Z,4.62
2022-10-07T07:59:37.382Z,4.69
2022-10-07T08:02:06.021Z,4.77
2022-10-07T08:04:33.538Z,4.85
2022-10-07T08:07:00.596Z,4.96
2022-10-07T08:09:27.935Z,4.99
2022-10-07T08:11:54.442Z,5.06
2022-10-07T08:14:22.819Z,5.07
2022-10-07T08:16:51.606Z,5.16
2022-10-07T08:19:19.315Z,5.28
2022-10-07T08:21:45.981Z,5.35
2022-10-07T08:24:17.517Z,5.51
2022-10-07T08:26:44.999Z,5.60
2022-10-07T08:29:14.076Z,5.67
2022-10-07T08:31:42.507Z,5.78
2022-10-07T08:34:10.986Z,5.82
2022-10-07T08:36:37.639Z,5.94
2022-10-07T08:39:04.838Z,6.02
2022-10-07T08:41:34.264Z,6.10
2022-10-07T08:44:37.549Z,6.24
2022-10-07T08:47:22.696Z,6.35
2022-10-07T08:50:07.469Z,6.39
2022-10-07T08:53:00.168Z,6.52
2022-10-07T08:55:39.631Z,6.50
2022-10-07T08:58:24.512Z,6.71
2022-10-07T09:01:09.547Z,6.83
2022-10-07T09:03:52.464Z,6.98
2022-10-07T09:06:48.296Z,7.08
2022-10-07T09:09:22.205Z,7.24
2022-10-07T09:11:51.200Z,7.35
2022-10-07T09:14:37.655Z,7.41
2022-10-07T09:17:13.000Z,7.62
2022-10-07T09:19:46.807Z,7.73
2022-10-07T09:22:21.224Z,7.65
2022-10-07T09:24:49.445Z,7.84
2022-10-07T09:27:18.207Z,8.04
2022-10-07T09:29:44.895Z,8.14
2022-10-07T09:32:14.177Z,8.20
2022-10-07T09:34:41.205Z,8.30
2022-10-07T09:37:23.352Z,8.35
2022-10-07T09:39:52.185Z,8.55
2022-10-07T09:42:33.540Z,8.61
2022-10-07T09:45:18.610Z,8.74
2022-10-07T09:47:52.426Z,8.76
2022-10-07T09:50:41.002Z,8.81
2022-10-07T09:53:22.450Z,8.95
2022-10-07T09:55:51.402Z,9.23
2022-10-07T09:58:26.981Z,9.36
2022-10-07T10:00:56.432Z,9.53
2022-10-07T10:03:30.510Z,9.47
2022-10-07T10:05:59.396Z,9.70
2022-10-07T10:08:34.020Z,9.92
2022-10-07T10:11:02.991Z,10.25
2022-10-07T10:13:38.325Z,10.38
2022-10-07T10:16:26.270Z,10.58
2022-10-07T10:18:55.406Z,10.73
2022-10-07T10:21:32.629Z,10.57
2022-10-07T10:24:01.671Z,10.83
2022-10-07T10:26:41.943Z,10.83
2022-10-07T10:29:34.929Z,11.29
2022-10-07T10:32:01.532Z,11.56
2022-10-07T10:34:46.288Z,11.66
2022-10-07T10:37:21.946Z,11.47
2022-10-07T10:40:10.216Z,11.54
2022-10-07T10:43:04.061Z,12.23
2022-10-07T10:45:55.385Z,12.42
2022-10-07T10:48:59.517Z,12.64
2022-10-07T10:51:34.503Z,13.21
2022-10-07T10:54:31.612Z,13.09
2022-10-07T10:57:12.027Z,13.39
2022-10-07T11:00:00.025Z,13.48
2022-10-07T11:02:38.555Z,13.70
2022-10-07T11:05:32.325Z,13.97
2022-10-07T11:08:11.506Z,13.67
2022-10-07T11:10:48.271Z,14.11
2022-10-07T11:13:36.655Z,14.26
2022-10-07T11:16:31.174Z,14.26
2022-10-07T11:19:07.833Z,14.71
2022-10-07T11:21:39.955Z,15.51
2022-10-07T11:24:19.819Z,16.35
2022-10-07T11:26:58.759Z,17.09
2022-10-07T11:29:43.209Z,18.92
2022-10-07T11:32:16.413Z,18.39
2022-10-07T11:34:54.280Z,17.39
2022-10-07T11:37:37.659Z,18.38
2022-10-07T11:40:06.167Z,19.16
2022-10-07T11:42:40.405Z,17.93
2022-10-07T11:45:11.308Z,17.93
2022-10-07T11:47:46.961Z,19.90
2022-10-07T11:50:20.677Z,21.00
2022-10-07T11:52:50.149Z,22.38
2022-10-07T11:55:25.714Z,21.10
2022-10-07T11:57:58.843Z,21.32
2022-10-07T12:00:27.385Z,20.48
2022-10-07T12:03:10.759Z,20.30
2022-10-07T12:05:37.126Z,19.21
2022-10-07T12:08:09.584Z,19.99
2022-10-07T12:10:36.133Z,20.63
2022-10-07T12:13:22.487Z,19.19
2022-10-07T12:15:50.437Z,19.12
2022-10-07T12:18:26.166Z,19.29
2022-10-07T12:20:53.296Z,20.35
2022-10-07T12:23:20.155Z,19.52
2022-10-07T12:25:54.225Z,18.73
2022-10-07T12:28:28.623Z,19.87
2022-10-07T12:31:00.098Z,19.28
2022-10-07T12:33:45.750Z,19.00
2022-10-07T12:36:21.325Z,20.75
2022-10-07T12:38:57.262Z,21.15
2022-10-07T12:41:26.162Z,21.43
2022-10-07T12:44:07.933Z,21.39
2022-10-07T12:46:50.869Z,20.77
2022-10-07T12:49:40.922Z,22.87
2022-10-07T12:52:19.303Z,22.72
2022-10-07T12:54:52.402Z,23.30
2022-10-07T12:57:23.113Z,23.24
2022-10-07T13:00:08.215Z,23.60
2022-10-07T13:03:02.864Z,22.21
2022-10-07T13:06:00.254Z,21.93
2022-10-07T13:09:08.268Z,22.02
2022-10-07T13:12:23.142Z,22.18
2022-10-07T13:15:08.519Z,22.98
2022-10-07T13:17:46.075Z,23.09
2022-10-07T13:20:35.898Z,23.09
2022-10-07T13:23:21.997Z,22.95
2022-10-07T13:25:53.226Z,23.15
2022-10-07T13:28:22.901Z,23.93
2022-10-07T13:30:51.460Z,23.66
2022-10-07T13:33:23.148Z,22.66
2022-10-07T13:35:50.849Z,21.12
2022-10-07T13:38:25.986Z,20.45
2022-10-07T13:41:15.213Z,20.72
2022-10-07T13:43:44.448Z,20.53
2022-10-07T13:46:12.317Z,20.55
2022-10-07T13:48:45.587Z,19.79
2022-10-07T13:51:20.527Z,21.43
2022-10-07T13:54:00.001Z,20.57
2022-10-07T13:56:53.244Z,21.21
2022-10-07T13:59:20.637Z,20.80
2022-10-07T14:01:50.392Z,20.78
2022-10-07T14:04:26.332Z,20.29
2022-10-07T14:06:54.655Z,21.52
2022-10-07T14:09:43.478Z,21.87
2022-10-07T14:12:15.257Z,20.24
2022-10-07T14:14:52.161Z,20.46
2022-10-07T14:17:28.156Z,20.06
2022-10-07T14:20:05.524Z,20.26
2022-10-07T14:22:37.352Z,20.41
2022-10-07T14:25:07.088Z,20.47
2022-10-07T14:27:40.465Z,20.63
2022-10-07T14:30:25.829Z,21.27
2022-10-07T14:33:32.837Z,21.38
2022-10-07T14:36:09.427Z,21.15
2022-10-07T14:38:36.441Z,22.00
2022-10-07T14:41:03.051Z,20.07
2022-10-07T14:43:33.945Z,19.37
2022-10-07T14:46:16.253Z,18.09
2022-10-07T14:48:43.006Z,17.31
2022-10-07T14:51:10.471Z,16.73
2022-10-07T14:53:37.586Z,16.69
2022-10-07T14:56:04.648Z,16.20
2022-10-07T14:58:31.214Z,16.27
2022-10-07T15:00:58.665Z,16.26
2022-10-07T15:03:25.225Z,15.86
2022-10-07T15:05:52.003Z,15.62
2022-10-07T15:08:18.625Z,15.73
2022-10-07T15:10:45.059Z,15.40
2022-10-07T15:13:13.376Z,15.42
2022-10-07T15:15:42.881Z,15.44
2022-10-07T15:18:18.543Z,15.30
2022-10-07T15:20:45.092Z,15.38
2022-10-07T15:23:11.713Z,15.40
2022-10-07T15:25:40.212Z,15.41
2022-10-07T15:28:06.688Z,15.01
2022-10-07T15:30:38.408Z,14.49
2022-10-07T15:33:05.968Z,14.26
2022-10-07T15:35:33.204Z,14.15
2022-10-07T15:37:59.628Z,14.14
2022-10-07T15:40:26.206Z,14.44
2022-10-07T15:42:52.692Z,14.55
2022-10-07T15:45:19.464Z,14.84
2022-10-07T15:47:45.900Z,14.82
2022-10-07T15:50:12.378Z,14.86
2022-10-07T15:52:38.975Z,14.68
2022-10-07T15:55:07.824Z,14.56
2022-10-07T15:57:35.036Z,14.21
2022-10-07T16:00:02.409Z,13.94
2022-10-07T16:03:05.692Z,13.91
2022-10-07T16:05:32.233Z,13.65
2022-10-07T16:08:02.588Z,13.64
2022-10-07T16:10:29.041Z,13.62
2022-10-07T16:12:57.613Z,13.51
2022-10-07T16:15:24.421Z,13.63
2022-10-07T16:17:51.543Z,13.58
2022-10-07T16:20:18.471Z,13.57
2022-10-07T16:22:45.114Z,13.58
2022-10-07T16:25:12.517Z,13.59
2022-10-07T16:27:57.699Z,13.69
2022-10-07T16:30:56.729Z,13.83
2022-10-07T16:33:23.193Z,13.92
2022-10-07T16:35:49.652Z,13.90
2022-10-07T16:38:46.510Z,13.96
2022-10-07T16:41:13.604Z,13.90
2022-10-07T16:43:40.330Z,13.91
2022-10-07T16:46:14.398Z,13.88
2022-10-07T16:48:43.087Z,13.74
2022-10-07T16:51:12.028Z,13.70
2022-10-07T16:53:39.951Z,13.55
2022-10-07T16:56:07.439Z,13.52
2022-10-07T16:58:34.381Z,13.37
2022-10-07T17:01:06.198Z,13.32
2022-10-07T17:03:34.214Z,13.22
2022-10-07T17:06:05.565Z,13.02
2022-10-07T17:08:37.590Z,12.93
2022-10-07T17:11:07.422Z,12.97
2022-10-07T17:13:36.799Z,12.75
2022-10-07T17:16:05.635Z,12.81
2022-10-07T17:18:33.846Z,12.65
2022-10-07T17:21:00.871Z,12.69
2022-10-07T17:23:27.588Z,12.42
2022-10-07T17:25:54.627Z,12.38
2022-10-07T17:28:24.337Z,12.45
2022-10-07T17:30:53.548Z,12.53
2022-10-07T17:33:20.535Z,12.27
2022-10-07T17:35:46.997Z,12.26
2022-10-07T17:38:13.492Z,12.06
2022-10-07T17:40:40.008Z,12.12
2022-10-07T17:43:10.319Z,12.01
2022-10-07T17:45:37.715Z,11.91
2022-10-07T17:48:04.438Z,11.85
2022-10-07T17:50:31.608Z,11.78
2022-10-07T17:53:00.385Z,11.79
2022-10-07T17:55:27.028Z,11.81
2022-10-07T17:57:53.516Z,11.78
2022-10-07T18:00:20.095Z,11.69
2022-10-07T18:02:51.452Z,11.59
2022-10-07T18:05:19.557Z,11.54
2022-10-07T18:07:46.141Z,11.51
2022-10-07T18:10:13.083Z,11.48
2022-10-07T18:12:58.304Z,11.37
2022-10-07T18:15:24.800Z,11.32
2022-10-07T18:17:57.219Z,11.30
2022-10-07T18:20:25.604Z,11.10
2022-10-07T18:22:56.755Z,10.82
2022-10-07T18:25:24.352Z,10.77
2022-10-07T18:27:50.848Z,10.71
2022-10-07T18:30:17.502Z,10.67
2022-10-07T18:32:43.982Z,10.81
2022-10-07T18:35:10.676Z,10.81
2022-10-07T18:37:37.475Z,10.81
2022-10-07T18:40:04.419Z,10.71
2022-10-07T18:42:30.886Z,10.59
2022-10-07T18:44:57.376Z,10.56
2022-10-07T18:47:23.825Z,10.52
2022-10-07T18:49:51.766Z,10.54
2022-10-07T18:52:18.221Z,10.40
2022-10-07T18:54:44.717Z,10.23
2022-10-07T18:57:11.187Z,10.28
2022-10-07T18:59:37.661Z,10.41
2022-10-07T19:02:04.307Z,10.40
2022-10-07T19:04:30.996Z,10.28
2022-10-07T19:06:57.492Z,10.22
2022-10-07T19:09:26.327Z,10.03
2022-10-07T19:11:55.137Z,10.19
2022-10-07T19:14:29.841Z,10.30
2022-10-07T19:16:57.218Z,10.37
2022-10-07T19:19:24.747Z,10.24
2022-10-07T19:21:53.439Z,10.33
2022-10-07T19:24:41.112Z,10.43
2022-10-07T19:27:07.884Z,10.38
2022-10-07T19:29:34.476Z,10.34
2022-10-07T19:32:05.779Z,10.18
2022-10-07T19:34:34.415Z,10.31
2022-10-07T19:37:00.861Z,10.31
2022-10-07T19:39:27.270Z,10.32
2022-10-07T19:41:53.726Z,10.29
2022-10-07T19:44:21.778Z,10.01
2022-10-07T19:46:50.823Z,9.98
2022-10-07T19:49:17.742Z,10.07
2022-10-07T19:51:45.482Z,9.77
2022-10-07T19:54:13.056Z,9.71
2022-10-07T19:56:40.535Z,9.74
2022-10-07T19:59:10.381Z,9.72
2022-10-07T20:01:41.332Z,9.63
2022-10-07T20:04:18.602Z,9.63
2022-10-07T20:06:45.528Z,9.73
2022-10-07T20:09:14.874Z,9.78
2022-10-07T20:11:41.579Z,9.82
2022-10-07T20:14:09.780Z,9.85
2022-10-07T20:16:37.239Z,9.80
2022-10-07T20:19:06.919Z,9.81
2022-10-07T20:21:35.979Z,9.83
2022-10-07T20:24:03.038Z,9.78
2022-10-07T20:26:31.538Z,9.72
2022-10-07T20:29:02.133Z,9.61
2022-10-07T20:31:31.175Z,9.60
2022-10-07T20:33:59.782Z,9.57
2022-10-07T20:36:38.226Z,9.55
2022-10-07T20:39:25.833Z,9.48
2022-10-07T20:42:11.996Z,9.39
2022-10-07T20:44:39.277Z,9.36
2022-10-07T20:47:07.753Z,9.38
2022-10-07T20:49:35.286Z,9.39
2022-10-07T20:52:04.611Z,9.37
2022-10-07T20:54:32.585Z,9.26
2022-10-07T20:56:59.529Z,9.10
2022-10-07T20:59:27.501Z,9.14
2022-10-07T21:01:54.443Z,9.18
2022-10-07T21:04:21.616Z,9.12
2022-10-07T21:06:51.251Z,9.10
2022-10-07T21:09:19.306Z,9.16
2022-10-07T21:11:47.058Z,9.08
2022-10-07T21:14:15.334Z,8.99
2022-10-07T21:16:42.036Z,9.00
2022-10-07T21:19:08.897Z,8.94
2022-10-07T21:21:35.366Z,8.96
2022-10-07T21:24:01.905Z,8.97
2022-10-07T21:26:28.353Z,8.93
2022-10-07T21:28:54.822Z,8.94
2022-10-07T21:31:22.479Z,8.89
2022-10-07T21:33:50.944Z,8.88
2022-10-07T21:36:23.619Z,8.89
2022-10-07T21:38:58.864Z,8.88
2022-10-07T21:41:38.565Z,8.86
2022-10-07T21:44:09.196Z,8.74
2022-10-07T21:46:36.680Z,8.74
2022-10-07T21:49:04.222Z,8.71
2022-10-07T21:51:32.131Z,8.52
2022-10-07T21:53:58.645Z,8.34
2022-10-07T21:56:27.057Z,8.32
2022-10-07T21:58:53.841Z,8.32
